sensor_id;sensor_type;location;lat;lon;timestamp;temperature;humidity
7496;DHT22;3789;47.064;15.482;2023-01-16T00:01:14;3.00;99.90
7496;DHT22;3789;47.064;15.482;2023-01-16T00:03:42;3.20;99.90
7496;DHT22;3789;47.064;15.482;2023-01-16T00:06:13;3.40;99.90
7496;DHT22;3789;47.064;15.482;2023-01-16T00:08:46;3.50;99.90
7496;DHT22;3789;47.064;15.482;2023-01-16T00:11:16;3.70;99.90
7496;DHT22;3789;47.064;15.482;2023-01-16T00:13:44;3.80;99.90
7496;DHT22;3789;47.064;15.482;2023-01-16T00:16:13;3.90;99.90
7496;DHT22;3789;47.064;15.482;2023-01-16T00:18:44;4.00;99.90
7496;DHT22;3789;47.064;15.482;2023-01-16T00:21:22;4.00;99.90
7496;DHT22;3789;47.064;15.482;2023-01-16T00:23:59;4.10;99.90
7496;DHT22;3789;47.064;15.482;2023-01-16T00:26:31;4.20;99.90
7496;DHT22;3789;47.064;15.482;2023-01-16T00:28:58;4.20;99.90
7496;DHT22;3789;47.064;15.482;2023-01-16T00:31:27;4.30;99.90
7496;DHT22;3789;47.064;15.482;2023-01-16T00:33:56;4.30;99.90
7496;DHT22;3789;47.064;15.482;2023-01-16T00:36:23;4.30;99.90
7496;DHT22;3789;47.064;15.482;2023-01-16T00:38:54;4.40;99.90
7496;DHT22;3789;47.064;15.482;2023-01-16T00:41:25;4.40;99.90
7496;DHT22;3789;47.064;15.482;2023-01-16T00:44:08;4.40;99.90
7496;DHT22;3789;47.064;15.482;2023-01-16T00:46:36;4.50;99.90
7496;DHT22;3789;47.064;15.482;2023-01-16T00:49:03;4.50;99.90
7496;DHT22;3789;47.064;15.482;2023-01-16T00:51:46;4.50;99.90
7496;DHT22;3789;47.064;15.482;2023-01-16T00:54:13;4.60;99.90
7496;DHT22;3789;47.064;15.482;2023-01-16T00:56:42;4.60;99.90
7496;DHT22;3789;47.064;15.482;2023-01-16T00:59:11;4.60;99.90
7496;DHT22;3789;47.064;15.482;2023-01-16T01:01:41;4.60;99.90
7496;DHT22;3789;47.064;15.482;2023-01-16T01:04:10;4.60;99.90
7496;DHT22;3789;47.064;15.482;2023-01-16T01:06:49;4.70;99.90
7496;DHT22;3789;47.064;15.482;2023-01-16T01:09:17;4.60;99.90
7496;DHT22;3789;47.064;15.482;2023-01-16T01:11:46;4.70;99.90
7496;DHT22;3789;47.064;15.482;2023-01-16T01:14:15;4.70;99.90
7496;DHT22;3789;47.064;15.482;2023-01-16T01:16:44;4.60;99.90
7496;DHT22;3789;47.064;15.482;2023-01-16T01:19:20;4.60;99.90
7496;DHT22;3789;47.064;15.482;2023-01-16T01:21:51;4.60;99.90
7496;DHT22;3789;47.064;15.482;2023-01-16T01:24:20;4.60;99.90
7496;DHT22;3789;47.064;15.482;2023-01-16T01:26:48;4.70;99.90
7496;DHT22;3789;47.064;15.482;2023-01-16T01:29:16;4.70;99.90
7496;DHT22;3789;47.064;15.482;2023-01-16T01:32:06;4.60;99.90
7496;DHT22;3789;47.064;15.482;2023-01-16T01:34:37;4.60;99.90
7496;DHT22;3789;47.064;15.482;2023-01-16T01:37:06;4.50;99.90
7496;DHT22;3789;47.064;15.482;2023-01-16T01:39:37;4.40;99.90
7496;DHT22;3789;47.064;15.482;2023-01-16T01:42:05;4.40;99.90
7496;DHT22;3789;47.064;15.482;2023-01-16T01:45:04;4.50;99.90
7496;DHT22;3789;47.064;15.482;2023-01-16T01:47:43;4.40;99.90
7496;DHT22;3789;47.064;15.482;2023-01-16T01:56:29;4.30;99.90
7496;DHT22;3789;47.064;15.482;2023-01-16T01:59:07;4.30;99.90
7496;DHT22;3789;47.064;15.482;2023-01-16T02:01:38;4.30;99.90
7496;DHT22;3789;47.064;15.482;2023-01-16T02:04:19;4.30;99.90
7496;DHT22;3789;47.064;15.482;2023-01-16T02:07:11;4.10;99.90
7496;DHT22;3789;47.064;15.482;2023-01-16T02:09:43;4.00;99.90
7496;DHT22;3789;47.064;15.482;2023-01-16T02:12:17;3.90;99.90
7496;DHT22;3789;47.064;15.482;2023-01-16T02:14:49;3.90;99.90
7496;DHT22;3789;47.064;15.482;2023-01-16T02:17:20;3.90;99.90
7496;DHT22;3789;47.064;15.482;2023-01-16T02:20:19;3.80;99.90
7496;DHT22;3789;47.064;15.482;2023-01-16T02:26:14;3.60;99.90
7496;DHT22;3789;47.064;15.482;2023-01-16T02:38:41;2.30;99.90
7496;DHT22;3789;47.064;15.482;2023-01-16T02:46:15;1.90;99.90
7496;DHT22;3789;47.064;15.482;2023-01-16T02:49:29;1.50;99.90
7496;DHT22;3789;47.064;15.482;2023-01-16T02:52:21;1.80;99.90
7496;DHT22;3789;47.064;15.482;2023-01-16T02:58:00;1.90;99.90
7496;DHT22;3789;47.064;15.482;2023-01-16T03:00:57;2.00;99.90
7496;DHT22;3789;47.064;15.482;2023-01-16T03:06:44;-0.20;99.90
7496;DHT22;3789;47.064;15.482;2023-01-16T03:15:12;-2.40;99.90
7496;DHT22;3789;47.064;15.482;2023-01-16T03:21:32;-4.00;99.90
7496;DHT22;3789;47.064;15.482;2023-01-16T03:27:47;-4.60;99.90
7496;DHT22;3789;47.064;15.482;2023-01-16T03:30:48;-4.80;99.90
7496;DHT22;3789;47.064;15.482;2023-01-16T03:39:53;-2.10;99.90
7496;DHT22;3789;47.064;15.482;2023-01-16T03:42:34;-1.20;99.90
7496;DHT22;3789;47.064;15.482;2023-01-16T03:45:11;-0.60;99.90
7496;DHT22;3789;47.064;15.482;2023-01-16T03:47:58;-0.10;99.90
7496;DHT22;3789;47.064;15.482;2023-01-16T03:50:28;0.30;99.90
7496;DHT22;3789;47.064;15.482;2023-01-16T03:53:06;0.50;99.90
7496;DHT22;3789;47.064;15.482;2023-01-16T03:56:14;0.80;99.90
7496;DHT22;3789;47.064;15.482;2023-01-16T03:58:53;1.10;99.90
7496;DHT22;3789;47.064;15.482;2023-01-16T04:04:10;1.40;99.90
7496;DHT22;3789;47.064;15.482;2023-01-16T04:10:24;1.50;99.90
7496;DHT22;3789;47.064;15.482;2023-01-16T04:12:59;1.60;99.90
7496;DHT22;3789;47.064;15.482;2023-01-16T04:15:32;1.80;99.90
7496;DHT22;3789;47.064;15.482;2023-01-16T04:18:05;1.90;99.90
7496;DHT22;3789;47.064;15.482;2023-01-16T04:20:35;2.00;99.90
7496;DHT22;3789;47.064;15.482;2023-01-16T04:23:06;2.00;99.90
7496;DHT22;3789;47.064;15.482;2023-01-16T04:25:33;2.10;99.90
7496;DHT22;3789;47.064;15.482;2023-01-16T04:28:01;2.20;99.90
7496;DHT22;3789;47.064;15.482;2023-01-16T04:30:30;2.30;99.90
7496;DHT22;3789;47.064;15.482;2023-01-16T04:33:03;2.30;99.90
7496;DHT22;3789;47.064;15.482;2023-01-16T04:35:37;2.30;99.90
7496;DHT22;3789;47.064;15.482;2023-01-16T04:38:07;2.30;99.90
7496;DHT22;3789;47.064;15.482;2023-01-16T04:40:37;2.30;99.90
7496;DHT22;3789;47.064;15.482;2023-01-16T04:43:15;2.30;99.90
7496;DHT22;3789;47.064;15.482;2023-01-16T04:45:45;2.30;99.90
7496;DHT22;3789;47.064;15.482;2023-01-16T04:48:16;2.30;99.90
7496;DHT22;3789;47.064;15.482;2023-01-16T04:50:48;2.30;99.90
7496;DHT22;3789;47.064;15.482;2023-01-16T04:53:17;2.30;99.90
7496;DHT22;3789;47.064;15.482;2023-01-16T04:55:46;2.30;99.90
7496;DHT22;3789;47.064;15.482;2023-01-16T04:58:14;2.30;99.90
7496;DHT22;3789;47.064;15.482;2023-01-16T05:00:45;2.30;99.90
7496;DHT22;3789;47.064;15.482;2023-01-16T05:03:16;2.30;99.90
7496;DHT22;3789;47.064;15.482;2023-01-16T05:05:44;2.30;99.90
7496;DHT22;3789;47.064;15.482;2023-01-16T05:08:13;2.30;99.90
7496;DHT22;3789;47.064;15.482;2023-01-16T05:10:43;2.30;99.90
7496;DHT22;3789;47.064;15.482;2023-01-16T05:13:23;2.20;99.90
7496;DHT22;3789;47.064;15.482;2023-01-16T05:15:54;2.20;99.90
7496;DHT22;3789;47.064;15.482;2023-01-16T05:18:21;2.20;99.90
7496;DHT22;3789;47.064;15.482;2023-01-16T05:20:53;2.20;99.90
7496;DHT22;3789;47.064;15.482;2023-01-16T05:23:22;2.10;99.90
7496;DHT22;3789;47.064;15.482;2023-01-16T05:25:50;1.90;99.90
7496;DHT22;3789;47.064;15.482;2023-01-16T05:28:20;1.70;99.90
7496;DHT22;3789;47.064;15.482;2023-01-16T05:30:48;1.70;99.90
7496;DHT22;3789;47.064;15.482;2023-01-16T05:33:18;1.70;99.90
7496;DHT22;3789;47.064;15.482;2023-01-16T05:35:55;1.80;99.90
7496;DHT22;3789;47.064;15.482;2023-01-16T05:38:24;1.80;99.90
7496;DHT22;3789;47.064;15.482;2023-01-16T05:40:51;1.90;99.90
7496;DHT22;3789;47.064;15.482;2023-01-16T05:43:21;1.90;99.90
7496;DHT22;3789;47.064;15.482;2023-01-16T05:45:50;2.00;99.90
7496;DHT22;3789;47.064;15.482;2023-01-16T05:48:18;2.10;99.90
7496;DHT22;3789;47.064;15.482;2023-01-16T05:50:45;2.10;99.90
7496;DHT22;3789;47.064;15.482;2023-01-16T05:53:14;2.20;99.90
7496;DHT22;3789;47.064;15.482;2023-01-16T05:55:54;2.20;99.90
7496;DHT22;3789;47.064;15.482;2023-01-16T05:58:25;2.20;99.90
7496;DHT22;3789;47.064;15.482;2023-01-16T06:00:53;2.10;99.90
7496;DHT22;3789;47.064;15.482;2023-01-16T06:03:24;2.10;99.90
7496;DHT22;3789;47.064;15.482;2023-01-16T06:05:54;2.20;99.90
7496;DHT22;3789;47.064;15.482;2023-01-16T06:08:21;2.20;99.90
7496;DHT22;3789;47.064;15.482;2023-01-16T06:10:49;2.20;99.90
7496;DHT22;3789;47.064;15.482;2023-01-16T06:13:18;2.10;99.90
7496;DHT22;3789;47.064;15.482;2023-01-16T06:15:47;2.10;99.90
7496;DHT22;3789;47.064;15.482;2023-01-16T06:18:14;2.10;99.90
7496;DHT22;3789;47.064;15.482;2023-01-16T06:20:45;2.10;99.90
7496;DHT22;3789;47.064;15.482;2023-01-16T06:23:14;1.90;99.90
7496;DHT22;3789;47.064;15.482;2023-01-16T06:25:47;1.90;99.90
7496;DHT22;3789;47.064;15.482;2023-01-16T06:28:20;1.90;99.90
7496;DHT22;3789;47.064;15.482;2023-01-16T06:30:52;1.90;99.90
7496;DHT22;3789;47.064;15.482;2023-01-16T06:33:20;1.80;99.90
7496;DHT22;3789;47.064;15.482;2023-01-16T06:35:51;1.70;99.90
7496;DHT22;3789;47.064;15.482;2023-01-16T06:38:22;1.70;99.90
7496;DHT22;3789;47.064;15.482;2023-01-16T06:40:54;1.80;99.90
7496;DHT22;3789;47.064;15.482;2023-01-16T06:43:26;1.90;99.90
7496;DHT22;3789;47.064;15.482;2023-01-16T06:45:58;2.00;99.90
7496;DHT22;3789;47.064;15.482;2023-01-16T06:48:27;2.00;99.90
7496;DHT22;3789;47.064;15.482;2023-01-16T06:50:57;2.00;99.90
7496;DHT22;3789;47.064;15.482;2023-01-16T06:53:28;1.90;99.90
7496;DHT22;3789;47.064;15.482;2023-01-16T06:56:05;1.80;99.90
7496;DHT22;3789;47.064;15.482;2023-01-16T06:58:35;1.70;99.90
7496;DHT22;3789;47.064;15.482;2023-01-16T07:01:03;1.70;99.90
7496;DHT22;3789;47.064;15.482;2023-01-16T07:03:36;1.70;99.90
7496;DHT22;3789;47.064;15.482;2023-01-16T07:06:04;1.80;99.90
7496;DHT22;3789;47.064;15.482;2023-01-16T07:08:33;1.90;99.90
7496;DHT22;3789;47.064;15.482;2023-01-16T07:11:02;1.90;99.90
7496;DHT22;3789;47.064;15.482;2023-01-16T07:13:34;1.90;99.90
7496;DHT22;3789;47.064;15.482;2023-01-16T07:16:16;1.80;99.90
7496;DHT22;3789;47.064;15.482;2023-01-16T07:19:04;1.80;99.90
7496;DHT22;3789;47.064;15.482;2023-01-16T07:21:50;1.70;99.90
7496;DHT22;3789;47.064;15.482;2023-01-16T07:24:39;1.70;99.90
7496;DHT22;3789;47.064;15.482;2023-01-16T07:27:07;1.70;99.90
7496;DHT22;3789;47.064;15.482;2023-01-16T07:29:39;1.80;99.90
7496;DHT22;3789;47.064;15.482;2023-01-16T07:32:08;1.90;99.90
7496;DHT22;3789;47.064;15.482;2023-01-16T07:34:39;2.00;99.90
7496;DHT22;3789;47.064;15.482;2023-01-16T07:37:08;2.10;99.90
7496;DHT22;3789;47.064;15.482;2023-01-16T07:39:37;2.20;99.90
7496;DHT22;3789;47.064;15.482;2023-01-16T07:42:08;2.20;99.90
7496;DHT22;3789;47.064;15.482;2023-01-16T07:44:40;2.30;99.90
7496;DHT22;3789;47.064;15.482;2023-01-16T07:47:10;2.30;99.90
7496;DHT22;3789;47.064;15.482;2023-01-16T07:49:41;2.40;99.90
7496;DHT22;3789;47.064;15.482;2023-01-16T07:52:08;2.40;99.90
7496;DHT22;3789;47.064;15.482;2023-01-16T07:54:40;2.40;99.90
7496;DHT22;3789;47.064;15.482;2023-01-16T07:57:21;2.30;99.90
7496;DHT22;3789;47.064;15.482;2023-01-16T07:59:56;2.30;99.90
7496;DHT22;3789;47.064;15.482;2023-01-16T08:02:27;2.40;99.90
7496;DHT22;3789;47.064;15.482;2023-01-16T08:04:58;2.40;99.90
7496;DHT22;3789;47.064;15.482;2023-01-16T08:07:26;2.40;99.90
7496;DHT22;3789;47.064;15.482;2023-01-16T08:09:56;2.40;99.90
7496;DHT22;3789;47.064;15.482;2023-01-16T08:12:27;2.40;99.90
7496;DHT22;3789;47.064;15.482;2023-01-16T08:14:55;2.50;99.90
7496;DHT22;3789;47.064;15.482;2023-01-16T08:17:37;2.50;99.90
7496;DHT22;3789;47.064;15.482;2023-01-16T08:20:06;2.50;99.90
7496;DHT22;3789;47.064;15.482;2023-01-16T08:22:40;2.50;99.90
7496;DHT22;3789;47.064;15.482;2023-01-16T08:25:13;2.60;99.90
7496;DHT22;3789;47.064;15.482;2023-01-16T08:27:43;2.60;99.90
7496;DHT22;3789;47.064;15.482;2023-01-16T08:30:19;2.60;99.90
7496;DHT22;3789;47.064;15.482;2023-01-16T08:32:48;1.50;99.90
7496;DHT22;3789;47.064;15.482;2023-01-16T08:35:15;0.00;99.90
7496;DHT22;3789;47.064;15.482;2023-01-16T08:37:49;-1.40;99.90
7496;DHT22;3789;47.064;15.482;2023-01-16T08:40:20;-2.30;99.90
7496;DHT22;3789;47.064;15.482;2023-01-16T08:42:49;-3.00;99.90
7496;DHT22;3789;47.064;15.482;2023-01-16T08:45:36;-3.70;99.90
7496;DHT22;3789;47.064;15.482;2023-01-16T08:48:26;-4.20;99.90
7496;DHT22;3789;47.064;15.482;2023-01-16T08:51:20;-4.60;99.90
7496;DHT22;3789;47.064;15.482;2023-01-16T08:53:54;-4.80;99.90
7496;DHT22;3789;47.064;15.482;2023-01-16T08:56:26;-4.90;99.90
7496;DHT22;3789;47.064;15.482;2023-01-16T08:58:55;-5.00;99.90
7496;DHT22;3789;47.064;15.482;2023-01-16T09:01:23;-5.20;99.90
7496;DHT22;3789;47.064;15.482;2023-01-16T09:03:53;-5.30;99.90
7496;DHT22;3789;47.064;15.482;2023-01-16T09:06:29;-5.40;99.90
7496;DHT22;3789;47.064;15.482;2023-01-16T09:08:57;-4.90;99.90
7496;DHT22;3789;47.064;15.482;2023-01-16T09:11:26;-4.00;99.90
7496;DHT22;3789;47.064;15.482;2023-01-16T09:14:16;-3.20;99.90
7496;DHT22;3789;47.064;15.482;2023-01-16T09:16:54;-2.30;99.90
7496;DHT22;3789;47.064;15.482;2023-01-16T09:19:31;-1.70;99.90
7496;DHT22;3789;47.064;15.482;2023-01-16T09:22:04;-1.10;99.90
7496;DHT22;3789;47.064;15.482;2023-01-16T09:24:35;-0.60;99.90
7496;DHT22;3789;47.064;15.482;2023-01-16T09:27:24;-0.20;99.90
7496;DHT22;3789;47.064;15.482;2023-01-16T09:29:55;0.20;99.90
7496;DHT22;3789;47.064;15.482;2023-01-16T09:32:27;0.50;99.90
7496;DHT22;3789;47.064;15.482;2023-01-16T09:35:01;0.80;99.90
7496;DHT22;3789;47.064;15.482;2023-01-16T09:37:29;1.10;99.90
7496;DHT22;3789;47.064;15.482;2023-01-16T09:40:05;1.30;99.90
7496;DHT22;3789;47.064;15.482;2023-01-16T09:43:16;1.40;99.90
7496;DHT22;3789;47.064;15.482;2023-01-16T09:46:25;1.60;99.90
7496;DHT22;3789;47.064;15.482;2023-01-16T09:51:41;1.90;99.90
7496;DHT22;3789;47.064;15.482;2023-01-16T09:54:22;2.00;99.90
7496;DHT22;3789;47.064;15.482;2023-01-16T09:57:14;2.00;99.90
7496;DHT22;3789;47.064;15.482;2023-01-16T10:00:04;2.10;99.90
7496;DHT22;3789;47.064;15.482;2023-01-16T10:02:40;2.10;99.90
7496;DHT22;3789;47.064;15.482;2023-01-16T10:05:27;2.20;99.90
7496;DHT22;3789;47.064;15.482;2023-01-16T10:08:33;2.30;99.90
7496;DHT22;3789;47.064;15.482;2023-01-16T10:11:28;2.30;99.90
7496;DHT22;3789;47.064;15.482;2023-01-16T10:23:49;2.50;99.90
7496;DHT22;3789;47.064;15.482;2023-01-16T10:26:41;2.50;99.90
7496;DHT22;3789;47.064;15.482;2023-01-16T10:29:44;2.60;99.90
7496;DHT22;3789;47.064;15.482;2023-01-16T10:32:47;2.50;99.90
7496;DHT22;3789;47.064;15.482;2023-01-16T10:35:32;2.50;99.90
7496;DHT22;3789;47.064;15.482;2023-01-16T10:38:22;2.50;99.90
7496;DHT22;3789;47.064;15.482;2023-01-16T10:41:45;2.60;99.90
7496;DHT22;3789;47.064;15.482;2023-01-16T10:44:38;2.70;99.90
7496;DHT22;3789;47.064;15.482;2023-01-16T10:47:37;2.70;99.90
7496;DHT22;3789;47.064;15.482;2023-01-16T10:50:24;2.80;99.90
7496;DHT22;3789;47.064;15.482;2023-01-16T10:53:06;2.80;99.90
7496;DHT22;3789;47.064;15.482;2023-01-16T10:55:39;2.80;99.90
7496;DHT22;3789;47.064;15.482;2023-01-16T11:01:17;3.00;99.90
7496;DHT22;3789;47.064;15.482;2023-01-16T11:03:59;3.00;99.90
7496;DHT22;3789;47.064;15.482;2023-01-16T11:06:30;3.10;99.90
7496;DHT22;3789;47.064;15.482;2023-01-16T11:09:17;3.20;99.90
7496;DHT22;3789;47.064;15.482;2023-01-16T11:11:51;3.20;99.90
7496;DHT22;3789;47.064;15.482;2023-01-16T11:14:45;3.20;99.90
7496;DHT22;3789;47.064;15.482;2023-01-16T11:17:36;3.20;99.90
7496;DHT22;3789;47.064;15.482;2023-01-16T11:20:33;3.30;99.90
7496;DHT22;3789;47.064;15.482;2023-01-16T11:23:24;3.30;99.90
7496;DHT22;3789;47.064;15.482;2023-01-16T11:25:56;3.30;99.90
7496;DHT22;3789;47.064;15.482;2023-01-16T11:28:31;3.40;99.90
7496;DHT22;3789;47.064;15.482;2023-01-16T11:31:23;3.30;99.90
7496;DHT22;3789;47.064;15.482;2023-01-16T11:34:01;3.30;99.90
7496;DHT22;3789;47.064;15.482;2023-01-16T11:36:43;3.30;99.90
7496;DHT22;3789;47.064;15.482;2023-01-16T11:39:21;3.30;99.90
7496;DHT22;3789;47.064;15.482;2023-01-16T11:41:53;3.30;99.90
7496;DHT22;3789;47.064;15.482;2023-01-16T11:44:35;3.30;99.90
7496;DHT22;3789;47.064;15.482;2023-01-16T11:47:23;3.30;99.90
7496;DHT22;3789;47.064;15.482;2023-01-16T11:49:55;3.30;99.90
7496;DHT22;3789;47.064;15.482;2023-01-16T11:52:24;3.30;99.90
7496;DHT22;3789;47.064;15.482;2023-01-16T11:54:58;3.30;99.90
7496;DHT22;3789;47.064;15.482;2023-01-16T11:57:59;3.30;99.90
7496;DHT22;3789;47.064;15.482;2023-01-16T12:09:09;3.20;99.90
7496;DHT22;3789;47.064;15.482;2023-01-16T12:15:07;3.20;99.90
7496;DHT22;3789;47.064;15.482;2023-01-16T12:21:01;1.20;99.90
7496;DHT22;3789;47.064;15.482;2023-01-16T12:38:37;-2.90;99.90
7496;DHT22;3789;47.064;15.482;2023-01-16T12:41:21;-2.90;99.90
7496;DHT22;3789;47.064;15.482;2023-01-16T12:45:03;-2.90;99.90
7496;DHT22;3789;47.064;15.482;2023-01-16T12:50:50;-2.60;99.90
7496;DHT22;3789;47.064;15.482;2023-01-16T12:57:12;-2.50;99.90
7496;DHT22;3789;47.064;15.482;2023-01-16T12:59:51;-2.40;99.90
7496;DHT22;3789;47.064;15.482;2023-01-16T13:03:25;-1.80;99.90
7496;DHT22;3789;47.064;15.482;2023-01-16T13:05:56;-0.90;99.90
7496;DHT22;3789;47.064;15.482;2023-01-16T13:09:02;-0.10;99.90
7496;DHT22;3789;47.064;15.482;2023-01-16T13:11:49;0.50;99.90
7496;DHT22;3789;47.064;15.482;2023-01-16T13:14:43;1.10;99.90
7496;DHT22;3789;47.064;15.482;2023-01-16T13:17:23;1.50;99.90
7496;DHT22;3789;47.064;15.482;2023-01-16T13:20:00;1.90;99.90
7496;DHT22;3789;47.064;15.482;2023-01-16T13:25:34;0.90;99.90
7496;DHT22;3789;47.064;15.482;2023-01-16T13:31:10;-2.20;99.90
7496;DHT22;3789;47.064;15.482;2023-01-16T13:33:43;-3.10;99.90
7496;DHT22;3789;47.064;15.482;2023-01-16T13:42:58;-4.10;99.90
7496;DHT22;3789;47.064;15.482;2023-01-16T13:46:02;-4.30;99.90
7496;DHT22;3789;47.064;15.482;2023-01-16T13:48:34;-4.40;99.90
7496;DHT22;3789;47.064;15.482;2023-01-16T13:51:13;-4.30;99.90
7496;DHT22;3789;47.064;15.482;2023-01-16T13:53:58;-4.40;99.90
7496;DHT22;3789;47.064;15.482;2023-01-16T13:56:29;-4.60;99.90
7496;DHT22;3789;47.064;15.482;2023-01-16T14:05:43;-4.00;99.90
7496;DHT22;3789;47.064;15.482;2023-01-16T14:12:19;-4.40;99.90
7496;DHT22;3789;47.064;15.482;2023-01-16T14:15:16;-4.40;99.90
7496;DHT22;3789;47.064;15.482;2023-01-16T14:18:35;-4.70;99.90
7496;DHT22;3789;47.064;15.482;2023-01-16T14:21:28;-4.60;99.90
7496;DHT22;3789;47.064;15.482;2023-01-16T14:24:00;-2.90;99.90
7496;DHT22;3789;47.064;15.482;2023-01-16T14:26:50;-2.70;99.90
7496;DHT22;3789;47.064;15.482;2023-01-16T14:29:38;-3.40;99.90
7496;DHT22;3789;47.064;15.482;2023-01-16T14:34:58;-4.10;99.90
7496;DHT22;3789;47.064;15.482;2023-01-16T14:37:59;-4.30;99.90
7496;DHT22;3789;47.064;15.482;2023-01-16T14:40:37;-4.50;99.90
7496;DHT22;3789;47.064;15.482;2023-01-16T14:43:31;-4.70;99.90
7496;DHT22;3789;47.064;15.482;2023-01-16T14:46:29;-4.90;99.90
7496;DHT22;3789;47.064;15.482;2023-01-16T14:52:48;-5.10;99.90
7496;DHT22;3789;47.064;15.482;2023-01-16T14:58:52;-5.30;99.90
7496;DHT22;3789;47.064;15.482;2023-01-16T15:01:59;-5.20;99.90
7496;DHT22;3789;47.064;15.482;2023-01-16T15:05:07;-5.30;99.90
7496;DHT22;3789;47.064;15.482;2023-01-16T15:07:51;-5.30;99.90
7496;DHT22;3789;47.064;15.482;2023-01-16T15:10:41;-5.40;99.90
7496;DHT22;3789;47.064;15.482;2023-01-16T15:13:23;-5.50;99.90
7496;DHT22;3789;47.064;15.482;2023-01-16T15:16:09;-5.70;99.90
7496;DHT22;3789;47.064;15.482;2023-01-16T15:18:43;-5.70;99.90
7496;DHT22;3789;47.064;15.482;2023-01-16T15:21:32;-5.70;99.90
7496;DHT22;3789;47.064;15.482;2023-01-16T15:24:25;-5.80;99.90
7496;DHT22;3789;47.064;15.482;2023-01-16T15:27:20;-5.70;99.90
7496;DHT22;3789;47.064;15.482;2023-01-16T15:30:05;-4.80;99.90
7496;DHT22;3789;47.064;15.482;2023-01-16T15:33:00;-3.60;99.90
7496;DHT22;3789;47.064;15.482;2023-01-16T15:35:58;-2.60;99.90
7496;DHT22;3789;47.064;15.482;2023-01-16T15:38:35;-1.80;99.90
7496;DHT22;3789;47.064;15.482;2023-01-16T15:41:07;-1.50;99.90
7496;DHT22;3789;47.064;15.482;2023-01-16T15:43:42;-1.20;99.90
7496;DHT22;3789;47.064;15.482;2023-01-16T15:47:00;-0.90;99.90
7496;DHT22;3789;47.064;15.482;2023-01-16T15:49:46;-0.60;99.90
7496;DHT22;3789;47.064;15.482;2023-01-16T15:52:20;-0.30;99.90
7496;DHT22;3789;47.064;15.482;2023-01-16T15:54:49;-0.20;99.90
7496;DHT22;3789;47.064;15.482;2023-01-16T15:57:27;0.00;99.90
7496;DHT22;3789;47.064;15.482;2023-01-16T15:59:56;0.10;99.90
7496;DHT22;3789;47.064;15.482;2023-01-16T16:02:27;0.20;99.90
7496;DHT22;3789;47.064;15.482;2023-01-16T16:05:02;0.30;99.90
7496;DHT22;3789;47.064;15.482;2023-01-16T16:07:52;0.40;99.90
7496;DHT22;3789;47.064;15.482;2023-01-16T16:10:24;0.50;99.90
7496;DHT22;3789;47.064;15.482;2023-01-16T16:13:18;0.50;99.90
7496;DHT22;3789;47.064;15.482;2023-01-16T16:16:02;0.60;99.90
7496;DHT22;3789;47.064;15.482;2023-01-16T16:18:58;0.60;99.90
7496;DHT22;3789;47.064;15.482;2023-01-16T16:21:47;0.70;99.90
7496;DHT22;3789;47.064;15.482;2023-01-16T16:24:37;0.80;99.90
7496;DHT22;3789;47.064;15.482;2023-01-16T16:27:06;0.90;99.90
7496;DHT22;3789;47.064;15.482;2023-01-16T16:29:35;1.00;99.90
7496;DHT22;3789;47.064;15.482;2023-01-16T16:32:04;1.10;99.90
7496;DHT22;3789;47.064;15.482;2023-01-16T16:34:33;1.10;99.90
7496;DHT22;3789;47.064;15.482;2023-01-16T16:37:12;1.10;99.90
7496;DHT22;3789;47.064;15.482;2023-01-16T16:39:51;1.20;99.90
7496;DHT22;3789;47.064;15.482;2023-01-16T16:45:18;1.20;99.90
7496;DHT22;3789;47.064;15.482;2023-01-16T16:50:40;1.30;99.90
7496;DHT22;3789;47.064;15.482;2023-01-16T16:53:23;1.30;99.90
7496;DHT22;3789;47.064;15.482;2023-01-16T16:56:07;1.30;99.90
7496;DHT22;3789;47.064;15.482;2023-01-16T16:58:46;1.40;99.90
7496;DHT22;3789;47.064;15.482;2023-01-16T17:01:29;1.30;99.90
7496;DHT22;3789;47.064;15.482;2023-01-16T17:04:02;1.40;99.90
7496;DHT22;3789;47.064;15.482;2023-01-16T17:06:33;1.40;99.90
7496;DHT22;3789;47.064;15.482;2023-01-16T17:09:24;1.40;99.90
7496;DHT22;3789;47.064;15.482;2023-01-16T17:12:18;1.40;99.90
7496;DHT22;3789;47.064;15.482;2023-01-16T17:14:51;1.50;99.90
7496;DHT22;3789;47.064;15.482;2023-01-16T17:17:20;1.50;99.90
7496;DHT22;3789;47.064;15.482;2023-01-16T17:19:55;1.40;99.90
7496;DHT22;3789;47.064;15.482;2023-01-16T17:22:24;1.40;99.90
7496;DHT22;3789;47.064;15.482;2023-01-16T17:24:54;1.30;99.90
7496;DHT22;3789;47.064;15.482;2023-01-16T17:27:24;1.30;99.90
7496;DHT22;3789;47.064;15.482;2023-01-16T17:29:51;1.40;99.90
7496;DHT22;3789;47.064;15.482;2023-01-16T17:32:30;1.30;99.90
7496;DHT22;3789;47.064;15.482;2023-01-16T17:35:02;1.40;99.90
7496;DHT22;3789;47.064;15.482;2023-01-16T17:37:31;1.40;99.90
7496;DHT22;3789;47.064;15.482;2023-01-16T17:40:07;1.40;99.90
7496;DHT22;3789;47.064;15.482;2023-01-16T17:42:36;1.30;99.90
7496;DHT22;3789;47.064;15.482;2023-01-16T17:45:46;1.30;99.90
7496;DHT22;3789;47.064;15.482;2023-01-16T17:48:24;1.30;99.90
7496;DHT22;3789;47.064;15.482;2023-01-16T17:50:59;1.30;99.90
7496;DHT22;3789;47.064;15.482;2023-01-16T17:53:33;1.40;99.90
7496;DHT22;3789;47.064;15.482;2023-01-16T17:56:05;1.40;99.90
7496;DHT22;3789;47.064;15.482;2023-01-16T17:58:38;1.40;99.90
7496;DHT22;3789;47.064;15.482;2023-01-16T18:01:33;1.40;99.90
7496;DHT22;3789;47.064;15.482;2023-01-16T18:04:04;1.40;99.90
7496;DHT22;3789;47.064;15.482;2023-01-16T18:06:37;1.50;99.90
7496;DHT22;3789;47.064;15.482;2023-01-16T18:09:18;1.50;99.90
7496;DHT22;3789;47.064;15.482;2023-01-16T18:11:57;1.50;99.90
7496;DHT22;3789;47.064;15.482;2023-01-16T18:14:56;1.50;99.90
7496;DHT22;3789;47.064;15.482;2023-01-16T18:17:45;1.50;99.90
7496;DHT22;3789;47.064;15.482;2023-01-16T18:20:19;1.50;99.90
7496;DHT22;3789;47.064;15.482;2023-01-16T18:22:51;1.50;99.90
7496;DHT22;3789;47.064;15.482;2023-01-16T18:25:19;1.50;99.90
7496;DHT22;3789;47.064;15.482;2023-01-16T18:27:47;1.40;99.90
7496;DHT22;3789;47.064;15.482;2023-01-16T18:30:17;1.40;99.90
7496;DHT22;3789;47.064;15.482;2023-01-16T18:32:46;1.40;99.90
7496;DHT22;3789;47.064;15.482;2023-01-16T18:35:14;1.40;99.90
7496;DHT22;3789;47.064;15.482;2023-01-16T18:37:44;1.40;99.90
7496;DHT22;3789;47.064;15.482;2023-01-16T18:40:32;1.40;99.90
7496;DHT22;3789;47.064;15.482;2023-01-16T18:43:21;1.40;99.90
7496;DHT22;3789;47.064;15.482;2023-01-16T18:46:15;1.40;99.90
7496;DHT22;3789;47.064;15.482;2023-01-16T18:49:04;1.40;99.90
7496;DHT22;3789;47.064;15.482;2023-01-16T18:51:53;1.40;99.90
7496;DHT22;3789;47.064;15.482;2023-01-16T18:54:40;1.40;99.90
7496;DHT22;3789;47.064;15.482;2023-01-16T18:57:30;1.40;99.90
7496;DHT22;3789;47.064;15.482;2023-01-16T19:00:19;1.50;99.90
7496;DHT22;3789;47.064;15.482;2023-01-16T19:03:08;1.50;99.90
7496;DHT22;3789;47.064;15.482;2023-01-16T19:05:39;1.50;99.90
7496;DHT22;3789;47.064;15.482;2023-01-16T19:08:07;1.50;99.90
7496;DHT22;3789;47.064;15.482;2023-01-16T19:10:41;1.50;99.90
7496;DHT22;3789;47.064;15.482;2023-01-16T19:13:09;1.50;99.90
7496;DHT22;3789;47.064;15.482;2023-01-16T19:15:40;1.40;99.90
7496;DHT22;3789;47.064;15.482;2023-01-16T19:18:27;1.40;99.90
7496;DHT22;3789;47.064;15.482;2023-01-16T19:20:57;1.40;99.90
7496;DHT22;3789;47.064;15.482;2023-01-16T19:23:25;1.50;99.90
7496;DHT22;3789;47.064;15.482;2023-01-16T19:25:52;1.50;99.90
7496;DHT22;3789;47.064;15.482;2023-01-16T19:28:22;1.50;99.90
7496;DHT22;3789;47.064;15.482;2023-01-16T19:30:55;1.60;99.90
7496;DHT22;3789;47.064;15.482;2023-01-16T19:33:23;1.50;99.90